createdAt,value
2023-02-23T00:00:21.976Z,11.77
2023-02-23T00:02:50.093Z,11.86
2023-02-23T00:05:17.642Z,11.81
2023-02-23T00:07:45.617Z,11.90
2023-02-23T00:10:14.488Z,11.93
2023-02-23T00:12:42.242Z,12.17
2023-02-23T00:15:09.893Z,12.24
2023-02-23T00:17:41.090Z,12.16
2023-02-23T00:20:12.231Z,12.18
2023-02-23T00:22:42.231Z,11.97
2023-02-23T00:25:12.575Z,11.80
2023-02-23T00:27:44.600Z,11.76
2023-02-23T00:30:15.709Z,12.10
2023-02-23T00:32:42.463Z,11.95
2023-02-23T00:35:12.753Z,11.93
2023-02-23T00:37:39.385Z,11.98
2023-02-23T00:40:13.974Z,12.04
2023-02-23T00:42:40.738Z,11.90
2023-02-23T00:45:11.858Z,12.03
2023-02-23T00:47:43.853Z,11.96
2023-02-23T00:50:13.111Z,11.77
2023-02-23T00:52:41.153Z,12.11
2023-02-23T00:55:16.246Z,11.97
2023-02-23T00:57:42.908Z,12.07
2023-02-23T01:00:19.805Z,11.93
2023-02-23T01:02:48.277Z,12.24
2023-02-23T01:05:16.631Z,12.22
2023-02-23T01:07:46.697Z,12.20
2023-02-23T01:10:19.840Z,12.00
2023-02-23T01:12:53.856Z,11.83
2023-02-23T01:15:21.300Z,11.75
2023-02-23T01:17:48.263Z,11.87
2023-02-23T01:20:19.708Z,11.76
2023-02-23T01:22:48.747Z,11.66
2023-02-23T01:25:16.610Z,11.62
2023-02-23T01:27:43.901Z,11.65
2023-02-23T01:33:08.200Z,11.84
2023-02-23T01:35:35.783Z,11.74
2023-02-23T01:38:03.721Z,11.91
2023-02-23T01:58:15.533Z,11.62
2023-02-23T02:03:48.500Z,11.70
2023-02-23T02:06:18.196Z,11.72
2023-02-23T02:08:49.368Z,11.59
2023-02-23T02:11:30.961Z,11.63
2023-02-23T02:14:02.999Z,11.73
2023-02-23T02:16:48.109Z,11.83
2023-02-23T02:19:53.670Z,11.78
2023-02-23T02:22:48.183Z,11.91
2023-02-23T02:35:19.168Z,11.89
2023-02-23T02:37:56.692Z,11.88
2023-02-23T02:40:53.582Z,11.95
2023-02-23T02:43:33.361Z,11.96
2023-02-23T02:46:11.043Z,12.05
2023-02-23T02:49:07.181Z,12.04
2023-02-23T02:51:54.090Z,12.03
2023-02-23T02:54:29.042Z,11.86
2023-02-23T02:56:58.545Z,11.92
2023-02-23T02:59:43.479Z,11.60
2023-02-23T03:02:36.341Z,11.39
2023-02-23T03:05:21.889Z,11.59
2023-02-23T03:08:18.608Z,11.76
2023-02-23T03:11:11.003Z,11.74
2023-02-23T03:14:14.436Z,11.52
2023-02-23T03:17:13.299Z,11.50
2023-02-23T03:23:39.600Z,11.30
2023-02-23T03:26:39.929Z,11.45
2023-02-23T03:29:47.258Z,11.45
2023-02-23T03:32:41.172Z,11.28
2023-02-23T03:35:36.563Z,11.13
2023-02-23T03:38:37.648Z,11.62
2023-02-23T03:41:26.304Z,11.35
2023-02-23T03:44:19.013Z,11.46
2023-02-23T03:47:10.725Z,11.78
2023-02-23T03:49:58.375Z,11.52
2023-02-23T03:52:50.531Z,11.56
2023-02-23T03:55:40.299Z,11.68
2023-02-23T03:58:28.123Z,11.76
2023-02-23T04:01:17.296Z,11.47
2023-02-23T04:04:04.389Z,11.43
2023-02-23T04:06:55.809Z,11.15
2023-02-23T04:09:40.981Z,11.25
2023-02-23T04:12:34.179Z,11.25
2023-02-23T04:15:25.312Z,11.02
2023-02-23T04:17:53.237Z,10.85
2023-02-23T04:20:20.661Z,11.09
2023-02-23T04:22:47.467Z,11.01
2023-02-23T04:25:17.386Z,10.91
2023-02-23T04:27:44.326Z,10.89
2023-02-23T04:30:11.778Z,10.85
2023-02-23T04:32:38.493Z,10.84
2023-02-23T04:35:05.450Z,10.82
2023-02-23T04:37:32.223Z,11.20
2023-02-23T04:39:58.888Z,11.30
2023-02-23T04:42:25.627Z,11.36
2023-02-23T04:44:52.301Z,11.41
2023-02-23T04:47:18.911Z,11.36
2023-02-23T04:49:45.564Z,11.31
2023-02-23T04:52:12.787Z,11.17
2023-02-23T04:54:40.051Z,11.15
2023-02-23T04:57:07.535Z,11.04
2023-02-23T04:59:34.468Z,11.03
2023-02-23T05:02:01.454Z,11.01
2023-02-23T05:04:28.155Z,10.75
2023-02-23T05:06:54.880Z,10.87
2023-02-23T05:09:21.406Z,11.03
2023-02-23T05:11:48.167Z,11.05
2023-02-23T05:14:14.868Z,10.91
2023-02-23T05:16:41.429Z,10.98
2023-02-23T05:19:08.134Z,11.19
2023-02-23T05:21:34.766Z,11.07
2023-02-23T05:24:01.460Z,10.85
2023-02-23T05:26:28.397Z,10.84
2023-02-23T05:28:56.188Z,11.02
2023-02-23T05:31:23.895Z,11.16
2023-02-23T05:33:50.711Z,11.14
2023-02-23T05:36:19.309Z,11.16
2023-02-23T05:38:46.686Z,11.08
2023-02-23T05:41:15.955Z,11.18
2023-02-23T05:43:42.941Z,11.39
2023-02-23T05:46:11.724Z,11.17
2023-02-23T05:48:38.763Z,10.98
2023-02-23T05:51:08.922Z,10.94
2023-02-23T05:53:36.347Z,11.26
2023-02-23T05:56:05.264Z,11.34
2023-02-23T05:58:32.230Z,11.16
2023-02-23T06:00:58.805Z,11.26
2023-02-23T06:03:25.563Z,10.85
2023-02-23T06:05:54.059Z,11.08
2023-02-23T06:08:20.855Z,10.93
2023-02-23T06:10:47.797Z,10.89
2023-02-23T06:13:15.522Z,10.85
2023-02-23T06:15:43.929Z,10.80
2023-02-23T06:18:10.880Z,11.01
2023-02-23T06:20:40.289Z,11.39
2023-02-23T06:23:07.616Z,11.46
2023-02-23T06:25:34.795Z,11.45
2023-02-23T06:28:01.470Z,11.38
2023-02-23T06:30:28.051Z,11.44
2023-02-23T06:32:56.859Z,11.40
2023-02-23T06:35:24.326Z,10.94
2023-02-23T06:37:50.936Z,10.99
2023-02-23T06:40:17.853Z,10.81
2023-02-23T06:42:44.766Z,10.93
2023-02-23T06:45:11.837Z,10.82
2023-02-23T06:47:38.422Z,11.04
2023-02-23T06:50:05.598Z,11.10
2023-02-23T06:52:32.245Z,11.02
2023-02-23T06:54:59.044Z,11.15
2023-02-23T06:57:26.001Z,10.73
2023-02-23T06:59:53.390Z,10.92
2023-02-23T07:02:20.038Z,10.80
2023-02-23T07:04:47.507Z,10.98
2023-02-23T07:07:14.663Z,11.07
2023-02-23T07:09:42.944Z,11.01
2023-02-23T07:12:11.154Z,11.13
2023-02-23T07:14:37.807Z,11.33
2023-02-23T07:17:05.022Z,11.57
2023-02-23T07:19:32.688Z,11.52
2023-02-23T07:21:59.627Z,11.56
2023-02-23T07:24:28.258Z,11.72
2023-02-23T07:26:55.459Z,11.75
2023-02-23T07:29:24.142Z,11.72
2023-02-23T07:31:51.040Z,12.11
2023-02-23T07:34:17.974Z,11.70
2023-02-23T07:36:44.647Z,11.99
2023-02-23T07:39:11.454Z,11.85
2023-02-23T07:41:38.982Z,11.79
2023-02-23T07:44:05.957Z,11.56
2023-02-23T07:46:32.544Z,11.24
2023-02-23T07:48:59.340Z,11.46
2023-02-23T07:51:25.877Z,11.85
2023-02-23T07:53:52.570Z,11.85
2023-02-23T07:56:19.390Z,11.27
2023-02-23T07:58:46.110Z,11.41
2023-02-23T08:01:13.439Z,11.69
2023-02-23T08:03:40.324Z,11.51
2023-02-23T08:06:09.021Z,11.23
2023-02-23T08:08:35.645Z,11.26
2023-02-23T08:11:05.263Z,11.49
2023-02-23T08:13:32.130Z,11.56
2023-02-23T08:15:59.501Z,11.39
2023-02-23T08:18:28.004Z,11.63
2023-02-23T08:21:01.919Z,11.72
2023-02-23T08:23:33.114Z,11.86
2023-02-23T08:26:00.787Z,11.86
2023-02-23T08:28:28.434Z,12.06
2023-02-23T08:30:55.480Z,12.13
2023-02-23T08:33:22.857Z,12.26
2023-02-23T08:35:49.491Z,11.98
2023-02-23T08:38:16.721Z,12.23
2023-02-23T08:40:43.495Z,12.26
2023-02-23T08:43:10.200Z,12.65
2023-02-23T08:45:38.803Z,12.73
2023-02-23T08:48:07.136Z,12.74
2023-02-23T08:50:33.723Z,12.86
2023-02-23T08:53:00.818Z,12.56
2023-02-23T08:55:27.567Z,12.16
2023-02-23T08:57:54.198Z,12.26
2023-02-23T09:00:21.905Z,12.40
2023-02-23T09:02:48.664Z,12.23
2023-02-23T09:05:16.157Z,12.19
2023-02-23T09:07:45.339Z,12.29
2023-02-23T09:10:20.098Z,12.41
2023-02-23T09:12:47.331Z,12.33
2023-02-23T09:15:13.935Z,12.48
2023-02-23T09:17:42.895Z,12.28
2023-02-23T09:20:13.845Z,12.20
2023-02-23T09:22:40.761Z,12.15
2023-02-23T09:25:08.629Z,12.19
2023-02-23T09:27:35.341Z,12.14
2023-02-23T09:30:02.048Z,12.24
2023-02-23T09:32:28.792Z,12.27
2023-02-23T09:34:55.624Z,12.24
2023-02-23T09:37:22.202Z,12.14
2023-02-23T09:39:49.467Z,12.23
2023-02-23T09:42:49.184Z,12.22
2023-02-23T09:45:37.189Z,12.26
2023-02-23T09:48:16.891Z,12.16
2023-02-23T09:50:50.588Z,12.35
2023-02-23T09:53:40.748Z,12.26
2023-02-23T09:56:15.995Z,12.34
2023-02-23T09:58:43.050Z,12.33
2023-02-23T10:01:39.661Z,12.38
2023-02-23T10:04:42.772Z,12.43
2023-02-23T10:07:44.529Z,12.35
2023-02-23T10:10:32.283Z,12.48
2023-02-23T10:13:26.932Z,12.40
2023-02-23T10:16:05.684Z,12.62
2023-02-23T10:18:52.531Z,12.56
2023-02-23T10:21:32.306Z,12.59
2023-02-23T10:24:03.784Z,12.84
2023-02-23T10:26:50.839Z,12.80
2023-02-23T10:29:27.493Z,12.74
2023-02-23T10:32:05.396Z,12.81
2023-02-23T10:34:32.331Z,12.69
2023-02-23T10:37:01.933Z,12.50
2023-02-23T10:39:33.765Z,12.37
2023-02-23T10:42:05.956Z,12.19
2023-02-23T10:44:32.889Z,12.20
2023-02-23T10:47:03.307Z,12.46
2023-02-23T10:49:41.164Z,12.65
2023-02-23T10:52:13.737Z,12.42
2023-02-23T10:54:47.698Z,12.35
2023-02-23T10:57:20.636Z,12.40
2023-02-23T11:00:27.596Z,12.32
2023-02-23T11:02:56.039Z,12.43
2023-02-23T11:05:33.654Z,12.47
2023-02-23T11:08:10.260Z,12.74
2023-02-23T11:10:37.180Z,12.73
2023-02-23T11:13:03.817Z,12.83
2023-02-23T11:15:50.356Z,12.83
2023-02-23T11:18:23.669Z,12.85
2023-02-23T11:20:51.951Z,12.78
2023-02-23T11:23:29.291Z,12.90
2023-02-23T11:26:01.540Z,12.89
2023-02-23T11:28:33.972Z,12.95
2023-02-23T11:31:15.852Z,12.98
2023-02-23T11:33:43.252Z,13.48
2023-02-23T11:36:39.281Z,13.41
2023-02-23T11:39:18.900Z,13.42
2023-02-23T11:41:45.864Z,13.48
2023-02-23T11:44:24.883Z,13.32
2023-02-23T11:46:52.534Z,13.22
2023-02-23T11:49:30.580Z,13.30
2023-02-23T11:51:59.548Z,13.40
2023-02-23T11:54:30.145Z,13.35
2023-02-23T11:56:58.167Z,13.36
2023-02-23T11:59:40.574Z,13.40
2023-02-23T12:02:23.055Z,13.44
2023-02-23T12:04:53.297Z,13.39
2023-02-23T12:07:27.165Z,13.37
2023-02-23T12:10:20.425Z,13.44
2023-02-23T12:12:55.629Z,13.69
2023-02-23T12:15:35.119Z,13.79
2023-02-23T12:18:26.841Z,14.03
2023-02-23T12:21:02.422Z,14.09
2023-02-23T12:23:33.641Z,14.34
2023-02-23T12:26:08.460Z,14.33
2023-02-23T12:28:50.412Z,14.29
2023-02-23T12:31:43.003Z,14.38
2023-02-23T12:34:19.276Z,14.23
2023-02-23T12:36:52.614Z,13.94
2023-02-23T12:39:38.948Z,13.75
2023-02-23T12:42:15.355Z,14.00
2023-02-23T12:44:51.854Z,14.26
2023-02-23T12:47:36.353Z,14.46
2023-02-23T12:50:13.618Z,14.51
2023-02-23T12:52:53.854Z,14.60
2023-02-23T12:55:41.998Z,14.54
2023-02-23T12:58:41.461Z,14.31
2023-02-23T13:01:41.714Z,14.25
2023-02-23T13:04:26.393Z,14.18
2023-02-23T13:06:59.537Z,14.27
2023-02-23T13:09:44.628Z,14.42
2023-02-23T13:12:23.314Z,14.67
2023-02-23T13:14:55.939Z,14.88
2023-02-23T13:17:44.807Z,14.83
2023-02-23T13:20:25.641Z,14.85
2023-02-23T13:23:03.079Z,14.77
2023-02-23T13:25:42.210Z,14.62
2023-02-23T13:28:17.879Z,14.64
2023-02-23T13:30:47.794Z,14.70
2023-02-23T13:33:35.072Z,14.74
2023-02-23T13:36:09.125Z,14.84
2023-02-23T13:39:19.141Z,14.80
2023-02-23T13:41:58.093Z,14.82
2023-02-23T13:44:32.894Z,14.93
2023-02-23T13:47:10.910Z,14.99
2023-02-23T13:49:42.569Z,15.24
2023-02-23T13:52:20.585Z,15.28
2023-02-23T13:54:57.343Z,15.30
2023-02-23T13:57:28.124Z,15.40
2023-02-23T13:59:54.879Z,15.55
2023-02-23T14:02:36.739Z,15.52
2023-02-23T14:05:17.988Z,15.63
2023-02-23T14:07:48.184Z,15.54
2023-02-23T14:10:25.381Z,15.64
2023-02-23T14:13:06.044Z,15.61
2023-02-23T14:15:35.547Z,15.72
2023-02-23T14:18:21.386Z,15.72
2023-02-23T14:21:18.329Z,15.95
2023-02-23T14:23:54.069Z,15.77
2023-02-23T14:26:29.894Z,15.88
2023-02-23T14:29:27.912Z,15.86
2023-02-23T14:31:57.139Z,15.60
2023-02-23T14:34:47.441Z,15.58
2023-02-23T14:37:22.122Z,15.61
2023-02-23T14:39:51.717Z,15.61
2023-02-23T14:42:23.926Z,15.66
2023-02-23T14:44:52.185Z,15.69
2023-02-23T14:47:21.732Z,15.75
2023-02-23T14:49:56.093Z,15.84
2023-02-23T14:52:29.657Z,15.82
2023-02-23T14:55:21.133Z,15.74
2023-02-23T14:57:47.934Z,15.72
2023-02-23T15:00:15.165Z,15.76
2023-02-23T15:02:54.878Z,15.86
2023-02-23T15:05:25.044Z,15.88
2023-02-23T15:07:52.140Z,15.89
2023-02-23T15:10:25.808Z,15.99
2023-02-23T15:12:53.558Z,15.94
2023-02-23T15:15:24.085Z,15.89
2023-02-23T15:17:54.731Z,16.15
2023-02-23T15:20:32.526Z,15.99
2023-02-23T15:23:02.334Z,15.89
2023-02-23T15:25:38.247Z,15.91
2023-02-23T15:28:23.649Z,16.00
2023-02-23T15:30:51.071Z,16.04
2023-02-23T15:33:28.970Z,15.91
2023-02-23T15:36:15.349Z,16.01
2023-02-23T15:38:47.293Z,16.19
2023-02-23T15:41:25.206Z,16.10
2023-02-23T15:43:52.217Z,16.09
2023-02-23T15:46:26.934Z,16.07
2023-02-23T15:48:55.870Z,16.10
2023-02-23T15:51:32.634Z,16.37
2023-02-23T15:54:01.394Z,16.24
2023-02-23T15:56:30.491Z,16.14
2023-02-23T15:59:03.142Z,16.02
2023-02-23T16:01:31.898Z,15.96
2023-02-23T16:04:03.021Z,15.98
2023-02-23T16:06:35.825Z,16.08
2023-02-23T16:09:06.049Z,15.98
2023-02-23T16:11:36.172Z,15.95
2023-02-23T16:14:05.730Z,15.85
2023-02-23T16:16:35.420Z,15.82
2023-02-23T16:19:04.733Z,15.64
2023-02-23T16:21:32.377Z,15.68
2023-02-23T16:24:01.962Z,15.72
2023-02-23T16:26:35.361Z,15.71
2023-02-23T16:29:04.457Z,15.69
2023-02-23T16:31:56.004Z,15.63
2023-02-23T16:34:44.676Z,15.56
2023-02-23T16:37:27.379Z,15.56
2023-02-23T16:39:58.766Z,15.56
2023-02-23T16:42:31.682Z,15.59
2023-02-23T16:44:58.891Z,15.69
2023-02-23T16:47:28.250Z,15.62
2023-02-23T16:49:54.925Z,15.60
2023-02-23T16:52:23.939Z,15.50
2023-02-23T16:54:54.506Z,15.33
2023-02-23T16:57:27.001Z,15.37
2023-02-23T16:59:54.637Z,15.45
2023-02-23T17:02:22.856Z,15.49
2023-02-23T17:04:51.694Z,15.54
2023-02-23T17:07:22.938Z,15.33
2023-02-23T17:09:50.779Z,15.45
2023-02-23T17:12:21.819Z,15.34
2023-02-23T17:14:49.415Z,15.56
2023-02-23T17:17:17.706Z,15.40
2023-02-23T17:19:45.613Z,15.25
2023-02-23T17:22:13.002Z,15.21
2023-02-23T17:24:40.467Z,15.41
2023-02-23T17:27:07.254Z,15.28
2023-02-23T17:29:34.544Z,15.11
2023-02-23T17:32:02.150Z,15.24
2023-02-23T17:34:29.688Z,15.17
2023-02-23T17:36:56.246Z,15.23
2023-02-23T17:39:28.127Z,15.13
2023-02-23T17:41:55.762Z,15.14
2023-02-23T17:44:22.483Z,15.11
2023-02-23T17:46:49.079Z,14.94
2023-02-23T17:49:15.713Z,15.04
2023-02-23T17:51:42.245Z,15.36
2023-02-23T17:54:08.892Z,15.15
2023-02-23T17:56:35.740Z,15.09
2023-02-23T17:59:02.288Z,15.13
2023-02-23T18:01:29.033Z,14.97
2023-02-23T18:03:58.615Z,14.96
2023-02-23T18:06:25.243Z,14.82
2023-02-23T18:08:51.884Z,14.92
2023-02-23T18:11:19.843Z,14.92
2023-02-23T18:13:48.089Z,15.28
2023-02-23T18:16:16.209Z,15.16
2023-02-23T18:18:46.559Z,14.91
2023-02-23T18:21:16.523Z,14.85
2023-02-23T18:23:43.603Z,15.04
2023-02-23T18:26:19.916Z,15.44
2023-02-23T18:28:47.026Z,15.02
2023-02-23T18:31:20.346Z,15.09
2023-02-23T18:33:49.948Z,14.86
2023-02-23T18:36:20.954Z,14.88
2023-02-23T18:38:47.864Z,14.92
2023-02-23T18:41:14.963Z,14.86
2023-02-23T18:43:41.645Z,14.88
2023-02-23T18:46:09.709Z,14.93
2023-02-23T18:48:37.283Z,14.84
2023-02-23T18:51:07.633Z,14.80
2023-02-23T18:53:37.279Z,14.84
2023-02-23T18:56:08.794Z,14.79
2023-02-23T18:58:35.747Z,14.98
2023-02-23T19:01:02.667Z,14.83
2023-02-23T19:03:29.237Z,14.77
2023-02-23T19:05:55.806Z,14.72
2023-02-23T19:08:22.862Z,14.66
2023-02-23T19:10:52.129Z,14.62
2023-02-23T19:13:22.086Z,14.62
2023-02-23T19:15:50.024Z,14.60
2023-02-23T19:18:16.831Z,14.55
2023-02-23T19:20:43.403Z,14.61
2023-02-23T19:23:12.166Z,14.59
2023-02-23T19:25:39.651Z,14.63
2023-02-23T19:28:09.108Z,14.54
2023-02-23T19:30:35.728Z,14.63
2023-02-23T19:33:03.633Z,14.58
2023-02-23T19:35:30.412Z,14.52
2023-02-23T19:37:58.396Z,14.44
2023-02-23T19:40:30.061Z,14.39
2023-02-23T19:42:57.525Z,14.40
2023-02-23T19:45:25.866Z,14.25
2023-02-23T19:47:53.255Z,14.29
2023-02-23T19:50:20.261Z,14.18
2023-02-23T19:52:48.311Z,14.27
2023-02-23T19:57:52.174Z,14.18
2023-02-23T20:00:21.476Z,14.12
2023-02-23T20:02:54.960Z,14.13
2023-02-23T20:05:23.350Z,14.13
2023-02-23T20:07:52.522Z,14.06
2023-02-23T20:10:25.755Z,14.06
2023-02-23T20:15:42.705Z,14.06
2023-02-23T20:18:10.077Z,13.94
2023-02-23T20:20:39.604Z,13.93
2023-02-23T20:23:12.003Z,14.12
2023-02-23T20:25:41.506Z,13.91
2023-02-23T20:28:08.370Z,13.94
2023-02-23T20:30:35.136Z,13.99
2023-02-23T20:33:05.935Z,13.89
2023-02-23T20:35:32.703Z,13.77
2023-02-23T20:37:59.510Z,13.78
2023-02-23T20:40:27.396Z,13.87
2023-02-23T20:42:53.984Z,13.50
2023-02-23T20:45:22.905Z,13.43
2023-02-23T20:47:53.193Z,13.39
2023-02-23T20:50:21.722Z,13.41
2023-02-23T20:52:49.586Z,13.41
2023-02-23T20:55:18.961Z,13.19
2023-02-23T20:57:47.522Z,13.25
2023-02-23T21:00:20.201Z,13.37
2023-02-23T21:02:46.893Z,13.32
2023-02-23T21:05:13.528Z,13.45
2023-02-23T21:07:40.417Z,13.47
2023-02-23T21:10:08.620Z,13.42
2023-02-23T21:12:35.697Z,13.47
2023-02-23T21:15:04.669Z,13.68
2023-02-23T21:17:31.365Z,13.72
2023-02-23T21:19:57.971Z,13.65
2023-02-23T21:22:24.606Z,13.68
2023-02-23T21:24:51.249Z,13.76
2023-02-23T21:27:17.870Z,13.70
2023-02-23T21:29:44.791Z,13.41
2023-02-23T21:32:16.813Z,13.38
2023-02-23T21:34:43.910Z,13.42
2023-02-23T21:37:10.780Z,13.38
2023-02-23T21:39:37.430Z,13.34
2023-02-23T21:42:05.919Z,13.39
2023-02-23T21:44:33.413Z,13.52
2023-02-23T21:47:04.905Z,13.53
2023-02-23T21:49:31.465Z,13.54
2023-02-23T21:51:58.406Z,13.74
2023-02-23T21:54:24.971Z,13.78
2023-02-23T21:56:51.600Z,13.41
2023-02-23T21:59:18.318Z,13.34
2023-02-23T22:01:45.121Z,13.17
2023-02-23T22:04:14.448Z,13.30
2023-02-23T22:06:44.585Z,13.31
2023-02-23T22:11:55.095Z,13.31
2023-02-23T22:14:21.757Z,13.26
2023-02-23T22:16:49.789Z,13.36
2023-02-23T22:19:17.817Z,13.35
2023-02-23T22:21:45.307Z,13.34
2023-02-23T22:24:14.061Z,13.31
2023-02-23T22:26:43.075Z,13.25
2023-02-23T22:29:10.756Z,13.20
2023-02-23T22:31:37.858Z,13.27
2023-02-23T22:34:06.405Z,13.40
2023-02-23T22:36:34.334Z,13.50
2023-02-23T22:39:01.117Z,13.66
2023-02-23T22:41:29.816Z,13.33
2023-02-23T22:43:57.756Z,13.26
2023-02-23T22:46:25.285Z,13.35
2023-02-23T22:48:52.076Z,13.33
2023-02-23T22:51:19.688Z,13.29
2023-02-23T22:53:46.396Z,13.21
2023-02-23T22:56:14.060Z,13.26
2023-02-23T22:58:42.215Z,13.19
2023-02-23T23:01:11.144Z,13.16
2023-02-23T23:03:45.865Z,13.17
2023-02-23T23:06:23.653Z,13.29
2023-02-23T23:08:52.558Z,13.13
2023-02-23T23:11:22.883Z,13.12
2023-02-23T23:13:52.178Z,13.08
2023-02-23T23:16:32.005Z,13.19
2023-02-23T23:19:04.679Z,13.26
2023-02-23T23:21:33.722Z,13.16
2023-02-23T23:24:05.925Z,13.24
2023-02-23T23:26:35.797Z,13.11
2023-02-23T23:29:04.836Z,13.23
2023-02-23T23:31:34.779Z,13.09
2023-02-23T23:34:05.038Z,13.49
2023-02-23T23:36:37.478Z,13.26
2023-02-23T23:39:04.506Z,13.32
2023-02-23T23:41:35.549Z,13.19
2023-02-23T23:44:05.264Z,13.09
2023-02-23T23:46:37.952Z,13.02
2023-02-23T23:49:08.316Z,13.06
2023-02-23T23:51:47.985Z,12.97
2023-02-23T23:54:20.304Z,13.31
2023-02-23T23:56:47.753Z,13.06
2023-02-23T23:59:17.339Z,13.00
